Terminal Aerodrome Forecast
Issued by NWS Omaha/Valley, NE

Home | Current Version | Previous Version | Graphics & Text | Print | Product List | Glossary On
Versions: 1 2 3 4 5 6 7 8 9 10 11 12 13 14 15
000
FTUS43 KOAX 031912 AAA
TAFOFK
TAF AMD
KOFK 031912Z 0319/0418 29012G20KT P6SM SCT060 BKN250
     FM040000 31009KT P6SM FEW060 BKN250
     FM040600 34008KT P6SM FEW250
     FM041500 34011KT P6SM SCT040=

USA.gov is the U.S. government's official web portal to all federal, state and local government web resources and services.